Betty K Ix — 3FTL3 — position and weather

sailwx.info

Track history (hours):
 
Tides and Currents Weather Stations Pressure Air Temp Water Temp Dewpoint Dewpoint Depression Visibility Wind Speed Wind Dir Waves Ship Positions

Betty K Ix

Last reported at 2017-Oct-05 21:25 UTC. Time now 2017-Oct-17 08:18 UTC.
Position N 25°35' W 079°35'.
Warning: this ship's position is 11 days out of date.

; draft 4.5 m.

Type: Cargo ship. MMSI: 354064000.

Date/timePositionNaut miles runAvg speedWind from/ knotsBaromVisibWave heightAir tempDewpointWater temp
2017-Oct-05 21:25N 25°35' W 079°35'4 9.3
2017-Oct-05 21:00N 25°39' W 079°35'4 8.9
2017-Oct-05 20:30N 25°43' W 079°36'4 8.8
2017-Oct-05 20:00N 25°48' W 079°35'5 8.9
2017-Oct-05 19:30N 25°52' W 079°35'4 8.7
2017-Oct-05 19:00N 25°56' W 079°34'5 8.8
2017-Oct-05 18:29N 26°01' W 079°33'4 8.9
2017-Oct-05 18:00N 26°05' W 079°32'5 9.2
2017-Oct-05 17:30N 26°10' W 079°31'5 9.2
2017-Oct-05 17:00N 26°14' W 079°30'  
2017-Oct-01 18:58N 25°57' W 079°42'511.8
2017-Oct-01 18:30N 25°55' W 079°47'611.9
2017-Oct-01 18:00N 25°52' W 079°53'612.0
2017-Oct-01 17:31N 25°50' W 079°59'611.7
2017-Oct-01 17:00N 25°47' W 080°05'4 7.8
2017-Oct-01 16:30N 25°46' W 080°09'2 3.6
2017-Oct-01 15:59N 25°46' W 080°11'1 2.5
2017-Oct-01 15:28N 25°47' W 080°12'1 2.8
2017-Oct-01 14:59N 25°47' W 080°14'1 2.4
2017-Oct-01 14:26N 25°48' W 080°15'1 1.2
2017-Oct-01 13:56N 25°48' W 080°15'0 0.0
2017-Oct-01 13:26N 25°48' W 080°15'0 0.0
2017-Oct-01 12:56N 25°48' W 080°15'0 0.0
2017-Oct-01 12:29N 25°48' W 080°15'0 0.0
2017-Oct-01 11:59N 25°48' W 080°15'0 0.0
2017-Oct-01 11:29N 25°48' W 080°15'0 0.0
2017-Oct-01 10:59N 25°48' W 080°15'0 0.0
2017-Oct-01 10:29N 25°48' W 080°15'0 0.0
2017-Oct-01 09:59N 25°48' W 080°15'0 0.0
2017-Oct-01 09:29N 25°48' W 080°15'0 0.0
2017-Oct-01 08:59N 25°48' W 080°15'0 0.0
2017-Oct-01 08:29N 25°48' W 080°15'0 0.0
2017-Oct-01 07:59N 25°48' W 080°15'0 0.0
2017-Oct-01 07:29N 25°48' W 080°15'0 0.0
2017-Oct-01 06:59N 25°48' W 080°15'0 0.0
2017-Oct-01 06:29N 25°48' W 080°15'0 0.0
2017-Oct-01 05:59N 25°48' W 080°15'0 0.0
2017-Oct-01 05:29N 25°48' W 080°15'0 0.0
2017-Oct-01 04:59N 25°48' W 080°15'0 0.0
2017-Oct-01 04:29N 25°48' W 080°15'0 0.0
2017-Oct-01 03:59N 25°48' W 080°15'0 0.0
2017-Oct-01 03:29N 25°48' W 080°15'0 0.0
2017-Oct-01 02:59N 25°48' W 080°15'0 0.0
2017-Sep-30 01:59N 25°48' W 080°15'0 0.0
2017-Sep-30 01:29N 25°48' W 080°15'0 0.0
2017-Sep-30 00:50N 25°48' W 080°15'0 0.0
2017-Sep-30 00:20N 25°48' W 080°15'0 0.0
2017-Sep-29 23:47N 25°48' W 080°15'0 0.0
2017-Sep-29 23:23N 25°48' W 080°15'0 0.0
2017-Sep-29 22:53N 25°48' W 080°15'0 0.0
2017-Sep-29 22:20N 25°48' W 080°15'0 0.0
2017-Sep-29 21:53N 25°48' W 080°15'0 0.0
2017-Sep-29 21:20N 25°48' W 080°15'0 0.0
2017-Sep-29 20:56N 25°48' W 080°15'0 0.0
2017-Sep-29 20:26N 25°48' W 080°15'0 0.0
2017-Sep-29 19:56N 25°48' W 080°15'0 0.0
2017-Sep-29 19:23N 25°48' W 080°15'0 0.0
2017-Sep-29 18:56N 25°48' W 080°15'0 0.0
2017-Sep-29 18:26N 25°48' W 080°15'0 0.0
2017-Sep-29 16:59N 25°48' W 080°15'0 0.0
2017-Sep-29 16:26N 25°48' W 080°15'0 0.0
2017-Sep-29 15:59N 25°48' W 080°15'0 0.0
2017-Sep-29 15:29N 25°48' W 080°15'0 0.0
2017-Sep-29 14:59N 25°48' W 080°15'0 0.0
2017-Sep-29 14:29N 25°48' W 080°15'0 0.0
2017-Sep-29 13:47N 25°48' W 080°15'0 0.0
2017-Sep-29 13:29N 25°48' W 080°15'0 0.0
2017-Sep-29 12:59N 25°48' W 080°15'0 0.0
2017-Sep-29 12:29N 25°48' W 080°15'0 0.0
2017-Sep-29 11:50N 25°48' W 080°15'0 0.0
2017-Sep-29 11:20N 25°48' W 080°15'0 0.0
2017-Sep-29 10:50N 25°48' W 080°15'0 0.0
2017-Sep-29 10:20N 25°48' W 080°15'0 0.0
2017-Sep-29 09:50N 25°48' W 080°15'0 0.0
2017-Sep-29 09:23N 25°48' W 080°15'0 0.0
2017-Sep-29 08:53N 25°48' W 080°15'0 0.0
2017-Sep-29 08:23N 25°48' W 080°15'0 0.0
2017-Sep-29 07:53N 25°48' W 080°15'0 0.0
2017-Sep-29 07:23N 25°48' W 080°15'0 0.0
2017-Sep-29 06:56N 25°48' W 080°15'0 0.0
2017-Sep-29 06:26N 25°48' W 080°15'0 0.0
2017-Sep-29 05:56N 25°48' W 080°15'0 0.0
2017-Sep-29 05:26N 25°48' W 080°15'0 0.0
2017-Sep-29 04:56N 25°48' W 080°15'0 0.0
2017-Sep-29 04:29N 25°48' W 080°15'0 0.0
2017-Sep-29 03:59N 25°48' W 080°15'0 0.0
2017-Sep-29 03:29N 25°48' W 080°15'0 0.0
2017-Sep-29 02:59N 25°48' W 080°15'0 0.0
2017-Sep-29 02:14N 25°48' W 080°15'0 0.0
2017-Sep-29 01:59N 25°48' W 080°15'0 0.0
2017-Sep-29 01:29N 25°48' W 080°15'0 0.0
2017-Sep-29 00:59N 25°48' W 080°15'0 0.0
2017-Sep-29 00:26N 25°48' W 080°15'0 0.0
2017-Sep-28 23:47N 25°48' W 080°15'0 0.0
2017-Sep-28 23:29N 25°48' W 080°15'0 0.0
2017-Sep-28 22:59N 25°48' W 080°15'0 0.0
2017-Sep-28 22:29N 25°48' W 080°15'0 0.0
2017-Sep-28 21:59N 25°48' W 080°15'0 0.0
2017-Sep-28 21:17N 25°48' W 080°15'0 0.0
2017-Sep-28 20:50N 25°48' W 080°15'0 0.0
2017-Sep-28 20:20N 25°48' W 080°15'0 0.0
2017-Sep-28 19:53N 25°48' W 080°15'0 0.0
2017-Sep-28 19:20N 25°48' W 080°15'0 0.0
2017-Sep-28 18:53N 25°48' W 080°15'0 0.0
2017-Sep-28 18:20N 25°48' W 080°15'0 0.0
2017-Sep-28 17:53N 25°48' W 080°15'0 0.0
2017-Sep-28 17:23N 25°48' W 080°15'0 0.0
2017-Sep-28 16:53N 25°48' W 080°15'0 0.0
2017-Sep-28 16:26N 25°48' W 080°15'0 0.0
2017-Sep-28 15:56N 25°48' W 080°15'0 0.0
2017-Sep-28 15:26N 25°48' W 080°15'0 0.0
2017-Sep-28 14:56N 25°48' W 080°15'0 0.0
2017-Sep-28 14:29N 25°48' W 080°15'0 0.0
2017-Sep-28 13:56N 25°48' W 080°15'0 0.0
2017-Sep-28 13:29N 25°48' W 080°15'0 0.0
2017-Sep-28 12:56N 25°48' W 080°15'0 0.0
2017-Sep-28 12:29N 25°48' W 080°15'0 0.0
2017-Sep-28 11:59N 25°48' W 080°15'0 0.0
2017-Sep-28 11:29N 25°48' W 080°15'0 0.0
2017-Sep-28 10:56N 25°48' W 080°15'0 0.0
2017-Sep-28 10:26N 25°48' W 080°15'0 0.0
2017-Sep-28 09:59N 25°48' W 080°15'0 0.0
2017-Sep-28 09:29N 25°48' W 080°15'0 0.0
2017-Sep-28 08:59N 25°48' W 080°15'0 0.0
2017-Sep-28 08:20N 25°48' W 080°15'0 0.0
2017-Sep-28 07:59N 25°48' W 080°15'0 0.0
2017-Sep-28 07:20N 25°48' W 080°15'0 0.0
2017-Sep-28 06:50N 25°48' W 080°15'0 0.0
2017-Sep-28 06:23N 25°48' W 080°15'0 0.0
2017-Sep-28 05:53N 25°48' W 080°15'0 0.0
2017-Sep-28 05:23N 25°48' W 080°15'0 0.0
2017-Sep-28 04:53N 25°48' W 080°15'0 0.0
2017-Sep-28 04:23N 25°48' W 080°15'0 0.0
2017-Sep-28 03:53N 25°48' W 080°15'0 0.0
2017-Sep-28 03:23N 25°48' W 080°15'0 0.0
2017-Sep-28 02:56N 25°48' W 080°15'0 0.0
2017-Sep-28 02:26N 25°48' W 080°15'0 0.0
2017-Sep-28 01:56N 25°48' W 080°15'0 0.0
2017-Sep-28 01:26N 25°48' W 080°15'0 0.0
2017-Sep-28 00:53N 25°48' W 080°15'0 0.0
2017-Sep-28 00:26N 25°48' W 080°15'0 0.0
2017-Sep-27 23:59N 25°48' W 080°15'0 0.0
2017-Sep-27 23:26N 25°48' W 080°15'0 0.0
2017-Sep-27 22:59N 25°48' W 080°15'0 0.0
2017-Sep-27 22:29N 25°48' W 080°15'0 0.0
2017-Sep-27 21:59N 25°48' W 080°15'0 0.0
2017-Sep-27 21:29N 25°48' W 080°15'0 0.0
2017-Sep-27 20:59N 25°48' W 080°15'0 0.0
2017-Sep-27 20:29N 25°48' W 080°15'0 0.0
2017-Sep-27 19:59N 25°48' W 080°15'0 0.0
2017-Sep-27 19:29N 25°48' W 080°15'0 0.0
2017-Sep-27 18:59N 25°48' W 080°15'0 0.0
2017-Sep-27 18:29N 25°48' W 080°15'0 0.0
2017-Sep-27 17:59N 25°48' W 080°15'0 0.0
2017-Sep-27 17:20N 25°48' W 080°15'0 0.0
2017-Sep-27 16:50N 25°48' W 080°15'0 0.0
2017-Sep-27 16:20N 25°48' W 080°15'0 0.0
2017-Sep-27 15:53N 25°48' W 080°15'0 0.0
2017-Sep-27 15:23N 25°48' W 080°15'0 0.0
2017-Sep-27 14:53N 25°48' W 080°15'0 0.0
2017-Sep-27 14:23N 25°48' W 080°15'0 0.0
2017-Sep-27 13:53N 25°48' W 080°15'0 0.0
2017-Sep-27 13:23N 25°48' W 080°15'0 0.0
2017-Sep-27 12:53N 25°48' W 080°15'0 0.0
2017-Sep-27 12:26N 25°48' W 080°15'0 0.0
2017-Sep-27 11:56N 25°48' W 080°15'0 0.0
2017-Sep-27 11:26N 25°48' W 080°15'0 0.0
2017-Sep-27 11:00N 25°48' W 080°15'0 0.0
2017-Sep-27 10:30N 25°48' W 080°15'0 0.0
2017-Sep-27 10:00N 25°48' W 080°15'0 0.0
2017-Sep-27 09:30N 25°48' W 080°15'0 0.0
2017-Sep-27 09:00N 25°48' W 080°15'0 0.0
2017-Sep-27 08:30N 25°48' W 080°15'0 0.0
2017-Sep-27 08:00N 25°48' W 080°15'0 0.0
2017-Sep-27 07:30N 25°48' W 080°15'0 0.0
2017-Sep-27 07:00N 25°48' W 080°15'0 0.0
2017-Sep-27 06:30N 25°48' W 080°15'0 0.0
2017-Sep-27 06:00N 25°48' W 080°15'0 0.0
2017-Sep-27 05:30N 25°48' W 080°15'0 0.0
2017-Sep-27 05:00N 25°48' W 080°15'0 0.0
2017-Sep-27 04:30N 25°48' W 080°15'0 0.0
2017-Sep-27 04:00N 25°48' W 080°15'0 0.0
2017-Sep-27 03:30N 25°48' W 080°15'0 0.0
2017-Sep-27 03:00N 25°48' W 080°15'0 0.0
2017-Sep-27 02:30N 25°48' W 080°15'0 0.0
2017-Sep-27 02:00N 25°48' W 080°15'0 0.0
2017-Sep-27 01:31N 25°48' W 080°15'0 0.0
2017-Sep-27 01:00N 25°48' W 080°15'0 0.0
2017-Sep-27 00:30N 25°48' W 080°15'0 0.0
2017-Sep-27 00:00N 25°48' W 080°15'0 0.0
2017-Sep-26 23:30N 25°48' W 080°15'0 0.0
2017-Sep-26 23:01N 25°48' W 080°15'0 0.0
2017-Sep-26 22:30N 25°48' W 080°15'1 1.2
2017-Sep-26 22:00N 25°48' W 080°15'1 1.9
2017-Sep-26 21:30N 25°47' W 080°14'1 2.5
2017-Sep-26 21:00N 25°47' W 080°13'1 2.6
2017-Sep-26 20:30N 25°46' W 080°12'2 4.6
2017-Sep-26 20:00N 25°46' W 080°09'510.1
2017-Sep-26 19:30N 25°47' W 080°03'5 9.2
2017-Sep-26 19:00N 25°49' W 079°59'1 1.7
2017-Sep-26 18:30N 25°48' W 079°59'1 1.4
2017-Sep-26 18:00N 25°47' W 079°60'1 1.3
2017-Sep-26 17:30N 25°47' W 080°00'0 0.5
2017-Sep-26 17:00N 25°46' W 080°00'510.3
2017-Sep-26 16:30N 25°47' W 079°54'1 2.0
2017-Sep-26 16:00N 25°47' W 079°53'1 1.7
2017-Sep-26 15:30N 25°48' W 079°54'2 3.8
2017-Sep-26 15:00N 25°49' W 079°54'4 7.9
2017-Sep-26 14:30N 25°51' W 079°51'5 9.8
2017-Sep-26 14:00N 25°54' W 079°46'5 9.5
2017-Sep-26 13:30N 25°55' W 079°41'5 9.3
2017-Sep-26 13:00N 25°58' W 079°36'5 9.2
2017-Sep-26 12:31N 26°01' W 079°32'4 8.8
2017-Sep-26 12:00N 26°03' W 079°29'6 9.2
2017-Sep-26 11:23N 26°06' W 079°23'4 9.7
2017-Sep-26 11:00N 26°08' W 079°19'  
Track history (hours):
 
Tides and Currents Weather Stations Pressure Air Temp Water Temp Dewpoint Dewpoint Depression Visibility Wind Speed Wind Dir Waves Ship Positions

Betty K Ix

Last reported at 2017-Oct-05 21:25 UTC. Time now 2017-Oct-17 08:18 UTC.
Position N 25°35' W 079°35'.
Warning: this ship's position is 11 days out of date.

; draft 4.5 m.

Type: Cargo ship. MMSI: 354064000.

Date/timePositionNaut miles runAvg speedWind from/ knotsBaromVisibWave heightAir tempDewpointWater temp
2017-Oct-05 21:25N 25°35' W 079°35'4 9.3
2017-Oct-05 21:00N 25°39' W 079°35'4 8.9
2017-Oct-05 20:30N 25°43' W 079°36'4 8.8
2017-Oct-05 20:00N 25°48' W 079°35'5 8.9
2017-Oct-05 19:30N 25°52' W 079°35'4 8.7
2017-Oct-05 19:00N 25°56' W 079°34'5 8.8
2017-Oct-05 18:29N 26°01' W 079°33'4 8.9
2017-Oct-05 18:00N 26°05' W 079°32'5 9.2
2017-Oct-05 17:30N 26°10' W 079°31'5 9.2
2017-Oct-05 17:00N 26°14' W 079°30'  
2017-Oct-01 18:58N 25°57' W 079°42'511.8
2017-Oct-01 18:30N 25°55' W 079°47'611.9
2017-Oct-01 18:00N 25°52' W 079°53'612.0
2017-Oct-01 17:31N 25°50' W 079°59'611.7
2017-Oct-01 17:00N 25°47' W 080°05'4 7.8
2017-Oct-01 16:30N 25°46' W 080°09'2 3.6
2017-Oct-01 15:59N 25°46' W 080°11'1 2.5
2017-Oct-01 15:28N 25°47' W 080°12'1 2.8
2017-Oct-01 14:59N 25°47' W 080°14'1 2.4
2017-Oct-01 14:26N 25°48' W 080°15'1 1.2
2017-Oct-01 13:56N 25°48' W 080°15'0 0.0
2017-Oct-01 13:26N 25°48' W 080°15'0 0.0
2017-Oct-01 12:56N 25°48' W 080°15'0 0.0
2017-Oct-01 12:29N 25°48' W 080°15'0 0.0
2017-Oct-01 11:59N 25°48' W 080°15'0 0.0
2017-Oct-01 11:29N 25°48' W 080°15'0 0.0
2017-Oct-01 10:59N 25°48' W 080°15'0 0.0
2017-Oct-01 10:29N 25°48' W 080°15'0 0.0
2017-Oct-01 09:59N 25°48' W 080°15'0 0.0
2017-Oct-01 09:29N 25°48' W 080°15'0 0.0
2017-Oct-01 08:59N 25°48' W 080°15'0 0.0
2017-Oct-01 08:29N 25°48' W 080°15'0 0.0
2017-Oct-01 07:59N 25°48' W 080°15'0 0.0
2017-Oct-01 07:29N 25°48' W 080°15'0 0.0
2017-Oct-01 06:59N 25°48' W 080°15'0 0.0
2017-Oct-01 06:29N 25°48' W 080°15'0 0.0
2017-Oct-01 05:59N 25°48' W 080°15'0 0.0
2017-Oct-01 05:29N 25°48' W 080°15'0 0.0
2017-Oct-01 04:59N 25°48' W 080°15'0 0.0
2017-Oct-01 04:29N 25°48' W 080°15'0 0.0
2017-Oct-01 03:59N 25°48' W 080°15'0 0.0
2017-Oct-01 03:29N 25°48' W 080°15'0 0.0
2017-Oct-01 02:59N 25°48' W 080°15'0 0.0
2017-Sep-30 01:59N 25°48' W 080°15'0 0.0
2017-Sep-30 01:29N 25°48' W 080°15'0 0.0
2017-Sep-30 00:50N 25°48' W 080°15'0 0.0
2017-Sep-30 00:20N 25°48' W 080°15'0 0.0
2017-Sep-29 23:47N 25°48' W 080°15'0 0.0
2017-Sep-29 23:23N 25°48' W 080°15'0 0.0
2017-Sep-29 22:53N 25°48' W 080°15'0 0.0
2017-Sep-29 22:20N 25°48' W 080°15'0 0.0
2017-Sep-29 21:53N 25°48' W 080°15'0 0.0
2017-Sep-29 21:20N 25°48' W 080°15'0 0.0
2017-Sep-29 20:56N 25°48' W 080°15'0 0.0
2017-Sep-29 20:26N 25°48' W 080°15'0 0.0
2017-Sep-29 19:56N 25°48' W 080°15'0 0.0
2017-Sep-29 19:23N 25°48' W 080°15'0 0.0
2017-Sep-29 18:56N 25°48' W 080°15'0 0.0
2017-Sep-29 18:26N 25°48' W 080°15'0 0.0
2017-Sep-29 16:59N 25°48' W 080°15'0 0.0
2017-Sep-29 16:26N 25°48' W 080°15'0 0.0
2017-Sep-29 15:59N 25°48' W 080°15'0 0.0
2017-Sep-29 15:29N 25°48' W 080°15'0 0.0
2017-Sep-29 14:59N 25°48' W 080°15'0 0.0
2017-Sep-29 14:29N 25°48' W 080°15'0 0.0
2017-Sep-29 13:47N 25°48' W 080°15'0 0.0
2017-Sep-29 13:29N 25°48' W 080°15'0 0.0
2017-Sep-29 12:59N 25°48' W 080°15'0 0.0
2017-Sep-29 12:29N 25°48' W 080°15'0 0.0
2017-Sep-29 11:50N 25°48' W 080°15'0 0.0
2017-Sep-29 11:20N 25°48' W 080°15'0 0.0
2017-Sep-29 10:50N 25°48' W 080°15'0 0.0
2017-Sep-29 10:20N 25°48' W 080°15'0 0.0
2017-Sep-29 09:50N 25°48' W 080°15'0 0.0
2017-Sep-29 09:23N 25°48' W 080°15'0 0.0
2017-Sep-29 08:53N 25°48' W 080°15'0 0.0
2017-Sep-29 08:23N 25°48' W 080°15'0 0.0
2017-Sep-29 07:53N 25°48' W 080°15'0 0.0
2017-Sep-29 07:23N 25°48' W 080°15'0 0.0
2017-Sep-29 06:56N 25°48' W 080°15'0 0.0
2017-Sep-29 06:26N 25°48' W 080°15'0 0.0
2017-Sep-29 05:56N 25°48' W 080°15'0 0.0
2017-Sep-29 05:26N 25°48' W 080°15'0 0.0
2017-Sep-29 04:56N 25°48' W 080°15'0 0.0
2017-Sep-29 04:29N 25°48' W 080°15'0 0.0
2017-Sep-29 03:59N 25°48' W 080°15'0 0.0
2017-Sep-29 03:29N 25°48' W 080°15'0 0.0
2017-Sep-29 02:59N 25°48' W 080°15'0 0.0
2017-Sep-29 02:14N 25°48' W 080°15'0 0.0
2017-Sep-29 01:59N 25°48' W 080°15'0 0.0
2017-Sep-29 01:29N 25°48' W 080°15'0 0.0
2017-Sep-29 00:59N 25°48' W 080°15'0 0.0
2017-Sep-29 00:26N 25°48' W 080°15'0 0.0
2017-Sep-28 23:47N 25°48' W 080°15'0 0.0
2017-Sep-28 23:29N 25°48' W 080°15'0 0.0
2017-Sep-28 22:59N 25°48' W 080°15'0 0.0
2017-Sep-28 22:29N 25°48' W 080°15'0 0.0
2017-Sep-28 21:59N 25°48' W 080°15'0 0.0
2017-Sep-28 21:17N 25°48' W 080°15'0 0.0
2017-Sep-28 20:50N 25°48' W 080°15'0 0.0
2017-Sep-28 20:20N 25°48' W 080°15'0 0.0
2017-Sep-28 19:53N 25°48' W 080°15'0 0.0
2017-Sep-28 19:20N 25°48' W 080°15'0 0.0
2017-Sep-28 18:53N 25°48' W 080°15'0 0.0
2017-Sep-28 18:20N 25°48' W 080°15'0 0.0
2017-Sep-28 17:53N 25°48' W 080°15'0 0.0
2017-Sep-28 17:23N 25°48' W 080°15'0 0.0
2017-Sep-28 16:53N 25°48' W 080°15'0 0.0
2017-Sep-28 16:26N 25°48' W 080°15'0 0.0
2017-Sep-28 15:56N 25°48' W 080°15'0 0.0
2017-Sep-28 15:26N 25°48' W 080°15'0 0.0
2017-Sep-28 14:56N 25°48' W 080°15'0 0.0
2017-Sep-28 14:29N 25°48' W 080°15'0 0.0
2017-Sep-28 13:56N 25°48' W 080°15'0 0.0
2017-Sep-28 13:29N 25°48' W 080°15'0 0.0
2017-Sep-28 12:56N 25°48' W 080°15'0 0.0
2017-Sep-28 12:29N 25°48' W 080°15'0 0.0
2017-Sep-28 11:59N 25°48' W 080°15'0 0.0
2017-Sep-28 11:29N 25°48' W 080°15'0 0.0
2017-Sep-28 10:56N 25°48' W 080°15'0 0.0
2017-Sep-28 10:26N 25°48' W 080°15'0 0.0
2017-Sep-28 09:59N 25°48' W 080°15'0 0.0
2017-Sep-28 09:29N 25°48' W 080°15'0 0.0
2017-Sep-28 08:59N 25°48' W 080°15'0 0.0
2017-Sep-28 08:20N 25°48' W 080°15'0 0.0
2017-Sep-28 07:59N 25°48' W 080°15'0 0.0
2017-Sep-28 07:20N 25°48' W 080°15'0 0.0
2017-Sep-28 06:50N 25°48' W 080°15'0 0.0
2017-Sep-28 06:23N 25°48' W 080°15'0 0.0
2017-Sep-28 05:53N 25°48' W 080°15'0 0.0
2017-Sep-28 05:23N 25°48' W 080°15'0 0.0
2017-Sep-28 04:53N 25°48' W 080°15'0 0.0
2017-Sep-28 04:23N 25°48' W 080°15'0 0.0
2017-Sep-28 03:53N 25°48' W 080°15'0 0.0
2017-Sep-28 03:23N 25°48' W 080°15'0 0.0
2017-Sep-28 02:56N 25°48' W 080°15'0 0.0
2017-Sep-28 02:26N 25°48' W 080°15'0 0.0
2017-Sep-28 01:56N 25°48' W 080°15'0 0.0
2017-Sep-28 01:26N 25°48' W 080°15'0 0.0
2017-Sep-28 00:53N 25°48' W 080°15'0 0.0
2017-Sep-28 00:26N 25°48' W 080°15'0 0.0
2017-Sep-27 23:59N 25°48' W 080°15'0 0.0
2017-Sep-27 23:26N 25°48' W 080°15'0 0.0
2017-Sep-27 22:59N 25°48' W 080°15'0 0.0
2017-Sep-27 22:29N 25°48' W 080°15'0 0.0
2017-Sep-27 21:59N 25°48' W 080°15'0 0.0
2017-Sep-27 21:29N 25°48' W 080°15'0 0.0
2017-Sep-27 20:59N 25°48' W 080°15'0 0.0
2017-Sep-27 20:29N 25°48' W 080°15'0 0.0
2017-Sep-27 19:59N 25°48' W 080°15'0 0.0
2017-Sep-27 19:29N 25°48' W 080°15'0 0.0
2017-Sep-27 18:59N 25°48' W 080°15'0 0.0
2017-Sep-27 18:29N 25°48' W 080°15'0 0.0
2017-Sep-27 17:59N 25°48' W 080°15'0 0.0
2017-Sep-27 17:20N 25°48' W 080°15'0 0.0
2017-Sep-27 16:50N 25°48' W 080°15'0 0.0
2017-Sep-27 16:20N 25°48' W 080°15'0 0.0
2017-Sep-27 15:53N 25°48' W 080°15'0 0.0
2017-Sep-27 15:23N 25°48' W 080°15'0 0.0
2017-Sep-27 14:53N 25°48' W 080°15'0 0.0
2017-Sep-27 14:23N 25°48' W 080°15'0 0.0
2017-Sep-27 13:53N 25°48' W 080°15'0 0.0
2017-Sep-27 13:23N 25°48' W 080°15'0 0.0
2017-Sep-27 12:53N 25°48' W 080°15'0 0.0
2017-Sep-27 12:26N 25°48' W 080°15'0 0.0
2017-Sep-27 11:56N 25°48' W 080°15'0 0.0
2017-Sep-27 11:26N 25°48' W 080°15'0 0.0
2017-Sep-27 11:00N 25°48' W 080°15'0 0.0
2017-Sep-27 10:30N 25°48' W 080°15'0 0.0
2017-Sep-27 10:00N 25°48' W 080°15'0 0.0
2017-Sep-27 09:30N 25°48' W 080°15'0 0.0
2017-Sep-27 09:00N 25°48' W 080°15'0 0.0
2017-Sep-27 08:30N 25°48' W 080°15'0 0.0
2017-Sep-27 08:00N 25°48' W 080°15'0 0.0
2017-Sep-27 07:30N 25°48' W 080°15'0 0.0
2017-Sep-27 07:00N 25°48' W 080°15'0 0.0
2017-Sep-27 06:30N 25°48' W 080°15'0 0.0
2017-Sep-27 06:00N 25°48' W 080°15'0 0.0
2017-Sep-27 05:30N 25°48' W 080°15'0 0.0
2017-Sep-27 05:00N 25°48' W 080°15'0 0.0
2017-Sep-27 04:30N 25°48' W 080°15'0 0.0
2017-Sep-27 04:00N 25°48' W 080°15'0 0.0
2017-Sep-27 03:30N 25°48' W 080°15'0 0.0
2017-Sep-27 03:00N 25°48' W 080°15'0 0.0
2017-Sep-27 02:30N 25°48' W 080°15'0 0.0
2017-Sep-27 02:00N 25°48' W 080°15'0 0.0
2017-Sep-27 01:31N 25°48' W 080°15'0 0.0
2017-Sep-27 01:00N 25°48' W 080°15'0 0.0
2017-Sep-27 00:30N 25°48' W 080°15'0 0.0
2017-Sep-27 00:00N 25°48' W 080°15'0 0.0
2017-Sep-26 23:30N 25°48' W 080°15'0 0.0
2017-Sep-26 23:01N 25°48' W 080°15'0 0.0
2017-Sep-26 22:30N 25°48' W 080°15'1 1.2
2017-Sep-26 22:00N 25°48' W 080°15'1 1.9
2017-Sep-26 21:30N 25°47' W 080°14'1 2.5
2017-Sep-26 21:00N 25°47' W 080°13'1 2.6
2017-Sep-26 20:30N 25°46' W 080°12'2 4.6
2017-Sep-26 20:00N 25°46' W 080°09'510.1
2017-Sep-26 19:30N 25°47' W 080°03'5 9.2
2017-Sep-26 19:00N 25°49' W 079°59'1 1.7
2017-Sep-26 18:30N 25°48' W 079°59'1 1.4
2017-Sep-26 18:00N 25°47' W 079°60'1 1.3
2017-Sep-26 17:30N 25°47' W 080°00'0 0.5
2017-Sep-26 17:00N 25°46' W 080°00'510.3
2017-Sep-26 16:30N 25°47' W 079°54'1 2.0
2017-Sep-26 16:00N 25°47' W 079°53'1 1.7
2017-Sep-26 15:30N 25°48' W 079°54'2 3.8
2017-Sep-26 15:00N 25°49' W 079°54'4 7.9
2017-Sep-26 14:30N 25°51' W 079°51'5 9.8
2017-Sep-26 14:00N 25°54' W 079°46'5 9.5
2017-Sep-26 13:30N 25°55' W 079°41'5 9.3
2017-Sep-26 13:00N 25°58' W 079°36'5 9.2
2017-Sep-26 12:31N 26°01' W 079°32'4 8.8
2017-Sep-26 12:00N 26°03' W 079°29'6 9.2
2017-Sep-26 11:23N 26°06' W 079°23'4 9.7
2017-Sep-26 11:00N 26°08' W 079°19'  

Dump ship's entire track history